»·PEaware :: UAL717 KSNA-KGCN

UAL717 :: KSNA-KGCN

FLIGHT INFORMATION

Flight Status: Arrived
Operator:
United Airlines
More flights by this operator :: More flights under this callsign
Pilot: Ty S. (2873)
Aircraft: AIRBUS A321
(A321)
More flights by this aircraft type
Origin: KSNA John Wayne-Orange Co
United States
Destination: KGCN Grand Canyon Natl Park
United States
More flights between these airports :: More routes between these airports
Route: +MUSEL8 TRM EED
File this flight plan on PilotEdge
Remarks: RMK / SIMBRIEF
Altitude:
(Current/Filed)
33,000ft
Speed:
(Current/Filed)
443kts
Departed: 01-May-20 04:10 PM
Arrived: 01-May-20 05:03 PM
Distance/Time
Traveled:
313nm/0:53
Distance/Time
To Go:
Arrived

Flight Plot

Page will automatically refresh every two minutes.

Flight plan parsing failed; only flown route is shown


Map Options




Map Legend


Flown Route
Filed Route
Departure Airport
Arrival Airport
Navaid (VOR, NDB)
Fix

Horizontal Profiles

Position Reports

Time Latitude Longitude Heading Altitude Ground
Speed
01-May-20 15:17 33.675011 -117.865085 118 65ft 0kts
01-May-20 15:18 33.675011 -117.865085 118 65ft 0kts
01-May-20 15:19 33.675011 -117.865085 118 65ft 0kts
01-May-20 15:20 33.675011 -117.865085 118 65ft 0kts
01-May-20 15:21 33.675011 -117.865085 118 65ft 0kts
01-May-20 15:22 33.675011 -117.865085 118 65ft 0kts
01-May-20 15:23 33.675011 -117.865085 118 65ft 0kts
01-May-20 15:24 33.675011 -117.865085 118 65ft 0kts
01-May-20 15:25 33.675011 -117.865085 118 65ft 0kts
01-May-20 15:26 33.675011 -117.865085 118 65ft 0kts
01-May-20 15:27 33.675011 -117.865085 118 65ft 0kts
01-May-20 15:28 33.675011 -117.865085 118 65ft 0kts
01-May-20 15:29 33.675011 -117.865085 118 65ft 0kts
01-May-20 15:30 33.675011 -117.865085 118 65ft 0kts
01-May-20 15:31 33.675011 -117.865085 118 65ft 0kts
01-May-20 15:32 33.675011 -117.865085 118 65ft 0kts
01-May-20 15:33 33.675011 -117.865085 118 65ft 0kts
01-May-20 15:34 33.675011 -117.865085 118 65ft 0kts
01-May-20 15:35 33.675011 -117.865085 118 65ft 0kts
01-May-20 15:36 33.675011 -117.865085 118 65ft 0kts
01-May-20 15:37 33.675011 -117.865085 118 65ft 0kts
01-May-20 15:38 33.675011 -117.865085 118 65ft 0kts
01-May-20 15:39 33.675011 -117.865085 118 65ft 0kts
01-May-20 15:40 33.675011 -117.865085 118 65ft 0kts
01-May-20 15:41 33.675011 -117.865085 118 65ft 0kts
01-May-20 15:42 33.675011 -117.865085 118 65ft 0kts
01-May-20 15:43 33.675011 -117.865085 118 65ft 0kts
01-May-20 15:44 33.675011 -117.865085 118 65ft 0kts
01-May-20 15:45 33.675011 -117.865085 118 65ft 0kts
01-May-20 15:46 33.675011 -117.865085 118 65ft 0kts
01-May-20 15:47 33.675011 -117.865085 118 65ft 0kts
01-May-20 15:48 33.675011 -117.865085 118 65ft 0kts
01-May-20 15:49 33.675011 -117.865085 118 65ft 0kts
01-May-20 15:50 33.675011 -117.865085 118 65ft 0kts
01-May-20 15:51 33.675011 -117.865085 118 65ft 0kts
01-May-20 15:52 33.675011 -117.865085 118 65ft 0kts
01-May-20 15:53 33.675011 -117.865085 118 65ft 0kts
01-May-20 15:54 33.675011 -117.865085 118 65ft 0kts
01-May-20 15:55 33.675011 -117.865085 118 65ft 0kts
01-May-20 15:56 33.675011 -117.865085 118 65ft 0kts
01-May-20 15:57 33.675011 -117.865085 118 65ft 0kts
01-May-20 15:58 33.675011 -117.865085 118 65ft 0kts
01-May-20 15:59 33.675011 -117.865085 118 65ft 0kts
01-May-20 16:00 33.675011 -117.865086 118 65ft 0kts
01-May-20 16:01 33.675011 -117.865086 118 65ft 0kts
01-May-20 16:02 33.675119 -117.865327 118 65ft 2kts
01-May-20 16:03 33.675128 -117.865838 24 65ft 1kts
01-May-20 16:04 33.675074 -117.865867 26 65ft 0kts
01-May-20 16:05 33.675074 -117.865867 26 65ft 0kts
01-May-20 16:06 33.675227 -117.865772 27 65ft 6kts
01-May-20 16:07 33.679119 -117.863276 27 65ft 19kts
01-May-20 16:08 33.681004 -117.863879 297 65ft 15kts
01-May-20 16:09 33.669266 -117.872871 206 105ft 155kts
01-May-20 16:10 33.629066 -117.890993 187 2469ft 171kts
01-May-20 16:11 33.571216 -117.899711 188 3883ft 246kts
01-May-20 16:12 33.499347 -117.910125 188 6785ft 267kts
01-May-20 16:13 33.425337 -117.900108 139 8996ft 295kts
01-May-20 16:14 33.427178 -117.809313 52 9011ft 307kts
01-May-20 16:16 33.480536 -117.723611 51 10921ft 346kts
01-May-20 16:17 33.540680 -117.625829 51 13188ft 371kts
01-May-20 16:18 33.570139 -117.504106 78 15481ft 390kts
01-May-20 16:19 33.592999 -117.373864 76 17543ft 406kts
01-May-20 16:20 33.618056 -117.238709 77 19416ft 419kts
01-May-20 16:21 33.643851 -117.099375 77 21119ft 431kts
01-May-20 16:22 33.670027 -116.957183 77 22795ft 438kts
01-May-20 16:23 33.719089 -116.823445 57 24304ft 444kts
01-May-20 16:24 33.781749 -116.692368 59 25559ft 456kts
01-May-20 16:25 33.843730 -116.557243 59 26771ft 466kts
01-May-20 16:26 33.906539 -116.419251 59 27948ft 474kts
01-May-20 16:27 33.969594 -116.279879 60 28994ft 482kts
01-May-20 16:28 34.034361 -116.136113 60 29947ft 489kts
01-May-20 16:29 34.099376 -115.991414 60 31167ft 486kts
01-May-20 16:30 34.163017 -115.850173 60 32256ft 485kts
01-May-20 16:31 34.227183 -115.706455 60 32968ft 484kts
01-May-20 16:32 34.290780 -115.563240 59 32975ft 484kts
01-May-20 16:32 34.343693 -115.443627 59 32976ft 484kts
01-May-20 16:34 34.419783 -115.282265 56 32938ft 483kts
01-May-20 16:34 34.479244 -115.167035 56 32882ft 483kts
01-May-20 16:35 34.549900 -115.028245 57 32852ft 482kts
01-May-20 16:36 34.619865 -114.889949 57 32848ft 482kts
01-May-20 16:37 34.689902 -114.750940 57 32848ft 482kts
01-May-20 16:38 34.759708 -114.611898 57 32848ft 482kts
01-May-20 16:39 34.829191 -114.472950 57 32848ft 482kts
01-May-20 16:40 34.895161 -114.340512 58 32840ft 482kts
01-May-20 16:41 34.965034 -114.199224 58 32450ft 486kts
01-May-20 16:42 35.035046 -114.057542 58 31369ft 498kts
01-May-20 16:43 35.105677 -113.914045 58 29237ft 501kts
01-May-20 16:44 35.178048 -113.767379 59 27431ft 503kts
01-May-20 16:45 35.249711 -113.620647 59 25517ft 500kts
01-May-20 16:46 35.319693 -113.476644 59 23138ft 483kts
01-May-20 16:47 35.383935 -113.343892 60 21012ft 467kts
01-May-20 16:48 35.448808 -113.208893 60 18792ft 450kts
01-May-20 16:49 35.511157 -113.079005 60 16649ft 433kts
01-May-20 16:50 35.571071 -112.953733 60 14513ft 418kts
01-May-20 16:51 35.628807 -112.832605 60 12583ft 399kts
01-May-20 16:52 35.682525 -112.719655 60 11234ft 373kts
01-May-20 16:53 35.733938 -112.611171 60 9566ft 358kts
01-May-20 16:54 35.781137 -112.511238 61 9008ft 318kts
01-May-20 16:55 35.831478 -112.422161 43 9001ft 320kts
01-May-20 16:56 35.892381 -112.348108 46 8998ft 318kts
01-May-20 16:57 35.952090 -112.271233 48 9046ft 280kts
01-May-20 16:58 35.998722 -112.208064 50 8507ft 216kts
01-May-20 16:59 36.016603 -112.150269 106 7623ft 170kts
01-May-20 17:00 35.991438 -112.112755 190 7590ft 140kts
01-May-20 17:01 35.957491 -112.141490 220 6609ft 139kts
01-May-20 17:02 35.947098 -112.150717 48 6609ft 6kts
01-May-20 17:03 35.950424 -112.147179 40 6609ft 24kts
01-May-20 17:04 35.954977 -112.141700 41 6609ft 0kts
01-May-20 17:05 35.954977 -112.141700 41 6609ft 0kts
01-May-20 17:06 35.954977 -112.141700 41 6609ft 0kts
01-May-20 17:07 35.954977 -112.141700 41 6609ft 0kts
01-May-20 17:08 35.954977 -112.141700 41 6609ft 0kts
01-May-20 17:09 35.954977 -112.141700 41 6609ft 0kts
01-May-20 17:10 35.954977 -112.141700 41 6609ft 0kts
01-May-20 17:11 35.954977 -112.141700 41 6609ft 0kts
01-May-20 17:12 35.954977 -112.141700 41 6609ft 0kts
01-May-20 17:13 35.954977 -112.141700 41 6609ft 0kts
01-May-20 17:14 35.954977 -112.141700 41 6609ft 0kts
01-May-20 17:15 35.954977 -112.141700 41 6609ft 0kts
01-May-20 17:16 35.954977 -112.141700 41 6609ft 0kts

Navigation Log

Ident Type
Flight plan parsing failed, navigation log unavailable